createdAt,value
2023-03-17T00:05:55.626Z,2.58
2023-03-17T00:13:32.189Z,3.70
2023-03-17T00:21:07.676Z,3.28
2023-03-17T00:28:44.416Z,3.05
2023-03-17T00:36:21.367Z,2.78
2023-03-17T00:43:57.347Z,3.25
2023-03-17T00:51:31.371Z,3.40
2023-03-17T00:59:19.249Z,3.57
2023-03-17T01:06:53.991Z,3.83
2023-03-17T01:22:03.133Z,7.57
2023-03-17T01:29:39.188Z,6.60
2023-03-17T01:37:15.016Z,5.90
2023-03-17T01:45:01.224Z,4.65
2023-03-17T01:52:37.834Z,4.13
2023-03-17T02:00:18.163Z,4.28
2023-03-17T02:07:53.764Z,4.53
2023-03-17T02:15:40.362Z,4.28
2023-03-17T02:23:18.081Z,4.50
2023-03-17T02:30:52.533Z,4.45
2023-03-17T02:38:27.942Z,4.38
2023-03-17T02:46:02.306Z,4.50
2023-03-17T02:53:37.866Z,4.43
2023-03-17T03:01:12.103Z,5.35
2023-03-17T03:08:48.093Z,4.93
2023-03-17T03:16:22.235Z,5.03
2023-03-17T03:23:57.490Z,4.45
2023-03-17T03:31:31.664Z,3.80
2023-03-17T03:39:08.086Z,5.03
2023-03-17T03:46:42.177Z,4.97
2023-03-17T03:54:17.454Z,4.72
2023-03-17T04:01:51.417Z,4.63
2023-03-17T04:09:27.233Z,4.87
2023-03-17T04:17:01.753Z,4.95
2023-03-17T04:24:37.322Z,4.80
2023-03-17T04:32:13.524Z,4.32
2023-03-17T04:39:48.863Z,4.07
2023-03-17T04:47:23.037Z,4.03
2023-03-17T04:54:58.510Z,4.55
2023-03-17T05:02:32.539Z,5.32
2023-03-17T05:10:09.716Z,4.43
2023-03-17T05:17:46.011Z,4.18
2023-03-17T05:25:21.324Z,5.13
2023-03-17T05:32:55.689Z,4.68
2023-03-17T05:40:31.468Z,5.07
2023-03-17T05:55:58.673Z,4.25
2023-03-17T06:03:32.654Z,3.90
2023-03-17T06:11:08.312Z,4.17
2023-03-17T06:18:42.264Z,3.97
2023-03-17T06:26:17.575Z,4.47
2023-03-17T06:33:51.757Z,4.10
2023-03-17T06:41:27.554Z,3.70
2023-03-17T06:49:01.502Z,3.42
2023-03-17T06:56:36.887Z,3.70
2023-03-17T07:04:11.148Z,3.50
2023-03-17T07:11:46.515Z,4.15
2023-03-17T07:19:20.702Z,3.20
2023-03-17T07:26:56.093Z,3.60
2023-03-17T07:34:30.032Z,3.47
2023-03-17T07:42:05.776Z,3.40
2023-03-17T07:49:42.031Z,3.88
2023-03-17T07:57:17.778Z,3.00
2023-03-17T08:04:51.755Z,3.03
2023-03-17T08:12:27.288Z,4.10
2023-03-17T08:20:01.210Z,3.45
2023-03-17T08:27:36.744Z,4.07
2023-03-17T08:35:13.205Z,4.10
2023-03-17T08:42:50.733Z,4.20
2023-03-17T08:50:25.535Z,4.15
2023-03-17T09:05:53.319Z,4.50
2023-03-17T09:13:28.785Z,4.10
2023-03-17T09:21:03.649Z,3.90
2023-03-17T09:36:13.648Z,3.70
2023-03-17T09:43:57.898Z,4.45
2023-03-17T09:51:33.478Z,4.32
2023-03-17T09:59:25.853Z,3.55
2023-03-17T10:07:05.784Z,4.13
2023-03-17T10:14:52.892Z,4.20
2023-03-17T10:22:31.879Z,4.28
2023-03-17T10:30:16.105Z,3.45
2023-03-17T10:37:50.098Z,3.47
2023-03-17T10:45:29.663Z,4.03
2023-03-17T10:53:08.116Z,4.30
2023-03-17T11:00:56.968Z,4.15
2023-03-17T11:08:34.066Z,3.85
2023-03-17T11:16:23.579Z,3.95
2023-03-17T11:24:05.926Z,3.67
2023-03-17T11:31:51.947Z,4.10
2023-03-17T11:39:28.489Z,4.07
2023-03-17T11:47:10.326Z,3.60
2023-03-17T11:54:55.979Z,4.60
2023-03-17T12:02:39.800Z,3.50
2023-03-17T12:10:20.640Z,4.28
2023-03-17T12:18:00.730Z,4.28
2023-03-17T12:33:43.953Z,3.33
2023-03-17T12:49:35.346Z,3.97
2023-03-17T12:57:16.318Z,3.10
2023-03-17T13:04:58.121Z,3.10
2023-03-17T13:12:57.998Z,3.00
2023-03-17T13:20:40.546Z,3.05
2023-03-17T13:36:39.668Z,3.20
2023-03-17T13:44:40.329Z,2.95
2023-03-17T13:52:18.671Z,2.60
2023-03-17T14:00:00.875Z,2.60
2023-03-17T14:07:46.723Z,2.47
2023-03-17T14:15:27.650Z,2.65
2023-03-17T14:23:05.623Z,2.35
2023-03-17T14:30:40.897Z,2.83
2023-03-17T14:38:19.914Z,2.70
2023-03-17T14:45:59.581Z,2.20
2023-03-17T14:53:36.717Z,2.72
2023-03-17T15:01:17.652Z,2.63
2023-03-17T15:08:54.000Z,2.55
2023-03-17T15:16:31.013Z,2.60
2023-03-17T15:24:24.094Z,2.10
2023-03-17T15:32:05.153Z,2.35
2023-03-17T15:39:40.535Z,2.80
2023-03-17T15:47:17.088Z,1.95
2023-03-17T15:54:53.425Z,2.22
2023-03-17T16:02:30.643Z,1.92
2023-03-17T16:10:17.153Z,2.10
2023-03-17T16:17:54.607Z,2.60
2023-03-17T16:25:32.663Z,2.40
2023-03-17T16:33:16.790Z,2.70
2023-03-17T16:40:54.116Z,2.80
2023-03-17T16:48:28.441Z,2.33
2023-03-17T16:56:04.534Z,2.93
2023-03-17T17:03:38.946Z,2.25
2023-03-17T17:11:16.133Z,2.60
2023-03-17T17:18:50.665Z,2.80
2023-03-17T17:26:26.428Z,2.30
2023-03-17T17:42:08.047Z,2.65
2023-03-17T17:49:43.633Z,3.17
2023-03-17T17:57:19.278Z,3.25
2023-03-17T18:04:55.820Z,3.28
2023-03-17T18:12:31.287Z,3.80
2023-03-17T18:20:06.684Z,3.30
2023-03-17T18:27:43.011Z,3.17
2023-03-17T18:35:20.832Z,3.42
2023-03-17T18:42:57.144Z,3.90
2023-03-17T18:50:31.517Z,3.20
2023-03-17T18:58:07.210Z,3.80
2023-03-17T19:05:41.436Z,3.47
2023-03-17T19:13:17.379Z,4.73
2023-03-17T19:28:47.484Z,4.00
2023-03-17T19:36:21.552Z,4.07
2023-03-17T19:43:56.929Z,4.43
2023-03-17T19:51:31.220Z,4.32
2023-03-17T20:06:58.348Z,4.95
2023-03-17T20:14:33.687Z,5.85
2023-03-17T20:22:08.859Z,5.90
2023-03-17T20:29:45.618Z,7.05
2023-03-17T20:37:20.596Z,6.32
2023-03-17T20:52:30.876Z,6.93
2023-03-17T21:00:08.375Z,6.35
2023-03-17T21:13:59.671Z,7.93
2023-03-17T21:21:33.558Z,6.78
2023-03-17T21:29:08.709Z,7.90
2023-03-17T21:36:42.890Z,7.45
2023-03-17T21:44:19.878Z,7.47
2023-03-17T21:51:55.003Z,6.60
2023-03-17T21:59:32.257Z,7.00
2023-03-17T22:07:06.619Z,6.90
2023-03-17T22:14:42.924Z,6.50
2023-03-17T22:22:16.879Z,7.05
2023-03-17T22:29:52.669Z,7.65
2023-03-17T22:37:26.746Z,7.07
2023-03-17T22:45:02.105Z,7.43
2023-03-17T22:52:36.851Z,7.55
2023-03-17T23:00:16.870Z,7.40
2023-03-17T23:15:44.022Z,8.60
2023-03-17T23:23:19.894Z,8.55
2023-03-17T23:30:56.280Z,8.00
2023-03-17T23:38:30.168Z,7.57
2023-03-17T23:46:07.017Z,8.80
2023-03-17T23:53:41.783Z,7.18
